Time;durP1;ratioP1;P1;durP2;ratioP2;P2;SDS_P1;SDS_P2;PMS_P1;PMS_P2;Temp;Humidity;BMP_temperature;BMP_pressure;BME280_temperature;BME280_humidity;BME280_pressure;Samples;Min_cycle;Max_cycle;Signal;HPM_P1;HPM_P2
2022/02/21 00:00:24;;;;;;;8.55;3.50;;;;;;;6.55;92.12;98926.67;1650548;86;25798;-79
2022/02/21 00:02:54;;;;;;;4.42;3.10;;;;;;;6.57;92.08;98915.31;1675481;84;25688;-79
2022/02/21 00:05:22;;;;;;;7.12;4.08;;;;;;;6.57;91.94;98917.97;1674999;84;25982;-79
2022/02/21 00:07:48;;;;;;;5.67;3.30;;;;;;;6.59;92.00;98910.61;1677163;84;26941;-79
2022/02/21 00:10:16;;;;;;;7.80;3.37;;;;;;;6.61;91.82;98904.57;1676846;84;25785;-79
2022/02/21 00:12:44;;;;;;;5.67;3.87;;;;;;;6.63;91.77;98903.06;1681102;84;26186;-80
2022/02/21 00:15:17;;;;;;;5.47;3.37;;;;;;;6.63;91.65;98899.86;1632080;87;26560;-79
2022/02/21 00:17:42;;;;;;;7.28;3.47;;;;;;;6.65;91.58;98891.17;1681971;84;26172;-79
2022/02/21 00:20:09;;;;;;;7.03;3.45;;;;;;;6.67;91.53;98893.11;1682187;84;27542;-80
2022/02/21 00:22:35;;;;;;;7.42;3.33;;;;;;;6.68;91.39;98884.12;1678824;84;26615;-79
2022/02/21 00:25:03;;;;;;;5.87;3.90;;;;;;;6.70;91.34;98882.08;1677639;84;26361;-80
2022/02/21 00:27:30;;;;;;;9.18;3.65;;;;;;;6.71;91.31;98878.41;1677225;84;25836;-80
2022/02/21 00:29:56;;;;;;;5.30;3.30;;;;;;;6.73;91.21;98872.37;1677083;84;25989;-80
2022/02/21 00:32:22;;;;;;;6.28;3.30;;;;;;;6.75;91.08;98870.33;1677412;84;27543;-80
2022/02/21 00:34:49;;;;;;;5.45;2.58;;;;;;;6.78;90.99;98867.73;1681210;84;25930;-79
2022/02/21 00:37:15;;;;;;;4.92;2.80;;;;;;;6.80;90.95;98859.07;1676066;84;26579;-80
2022/02/21 00:39:41;;;;;;;5.17;3.22;;;;;;;6.81;90.83;98850.05;1684092;84;26668;-79
2022/02/21 00:42:08;;;;;;;4.50;2.77;;;;;;;6.83;90.72;98840.84;1678196;84;25788;-80
2022/02/21 00:44:34;;;;;;;5.95;2.77;;;;;;;6.86;90.61;98837.75;1651965;86;27477;-80
2022/02/21 00:47:01;;;;;;;3.58;2.65;;;;;;;6.87;90.50;98834.08;1679174;84;25900;-79
2022/02/21 00:49:27;;;;;;;5.30;2.70;;;;;;;6.90;90.38;98826.20;1680482;84;25777;-79
2022/02/21 00:51:53;;;;;;;4.65;3.05;;;;;;;6.92;90.26;98820.98;1681526;84;25931;-80
2022/02/21 00:54:21;;;;;;;3.35;2.20;;;;;;;6.94;90.17;98811.45;1686692;84;26153;-80
2022/02/21 00:56:47;;;;;;;3.25;2.12;;;;;;;6.96;90.07;98812.06;1652796;85;28362;-80
2022/02/21 00:59:13;;;;;;;3.67;2.58;;;;;;;6.97;89.98;98811.05;1649027;86;25317;-79
2022/02/21 01:01:39;;;;;;;4.33;2.25;;;;;;;6.98;89.93;98804.18;1656359;85;26518;-80
2022/02/21 01:04:06;;;;;;;5.55;2.75;;;;;;;7.00;89.92;98792.81;1628315;86;25879;-79
2022/02/21 01:06:33;;;;;;;4.62;2.27;;;;;;;7.03;89.79;98785.43;1624851;86;25834;-81
2022/02/21 01:08:59;;;;;;;4.05;2.27;;;;;;;7.03;89.78;98780.39;1658847;85;27490;-80
2022/02/21 01:11:28;;;;;;;5.00;2.65;;;;;;;7.06;89.81;98787.69;1662029;85;25994;-80
2022/02/21 01:13:53;;;;;;;3.17;2.20;;;;;;;7.07;89.67;98760.03;1635223;86;25789;-79
2022/02/21 01:16:20;;;;;;;5.85;2.60;;;;;;;7.08;89.57;98765.67;1624664;86;26559;-80
2022/02/21 01:18:46;;;;;;;5.95;2.52;;;;;;;7.08;89.56;98757.14;1625062;86;25870;-79
2022/02/21 01:21:12;;;;;;;3.25;2.25;;;;;;;7.09;89.48;98751.31;1632024;86;28049;-80
2022/02/21 01:23:40;;;;;;;5.62;2.60;;;;;;;7.10;89.53;98752.43;1630345;86;25811;-80
2022/02/21 01:26:06;;;;;;;4.12;2.33;;;;;;;7.11;89.45;98742.10;1643280;86;25899;-79
2022/02/21 01:28:32;;;;;;;4.33;2.30;;;;;;;7.11;89.45;98743.43;1662817;85;26055;-80
2022/02/21 01:30:59;;;;;;;4.20;2.00;;;;;;;7.12;89.50;98731.73;1645723;86;26533;-80
2022/02/21 01:33:25;;;;;;;3.75;2.20;;;;;;;7.14;89.59;98727.55;1638855;86;27498;-80
2022/02/21 01:35:54;;;;;;;3.08;2.08;;;;;;;7.13;89.62;98720.08;1640164;86;25771;-79
2022/02/21 01:38:20;;;;;;;4.15;2.17;;;;;;;7.15;89.77;98719.35;1643792;85;25800;-80
2022/02/21 01:40:46;;;;;;;5.22;2.22;;;;;;;7.16;89.87;98712.19;1659169;85;26669;-79
2022/02/21 01:43:12;;;;;;;4.03;1.95;;;;;;;7.14;89.89;98712.41;1655936;85;25990;-79
2022/02/21 01:45:38;;;;;;;4.10;2.27;;;;;;;7.14;90.22;98712.41;1660338;85;27647;-80
2022/02/21 01:48:05;;;;;;;3.35;1.98;;;;;;;7.13;90.27;98699.28;1628311;86;25802;-79
2022/02/21 01:50:31;;;;;;;2.35;1.65;;;;;;;7.12;90.44;98689.14;1645465;86;26599;-80
2022/02/21 01:52:59;;;;;;;2.72;1.92;;;;;;;7.10;90.83;98679.22;1641647;85;25851;-80
2022/02/21 01:55:25;;;;;;;3.20;1.87;;;;;;;7.10;90.78;98675.22;1654469;85;25919;-80
2022/02/21 01:57:52;;;;;;;4.78;2.30;;;;;;;7.09;90.93;98668.28;1649227;86;27480;-79
2022/02/21 02:00:19;;;;;;;3.60;1.80;;;;;;;7.07;91.14;98672.17;1653111;85;25846;-80
2022/02/21 02:02:46;;;;;;;3.52;1.95;;;;;;;7.03;91.51;98660.61;1657218;85;26662;-79
2022/02/21 02:05:14;;;;;;;4.65;2.22;;;;;;;7.02;91.53;98648.84;1654699;85;26025;-80
2022/02/21 02:07:42;;;;;;;3.02;2.17;;;;;;;7.01;91.77;98642.70;1661266;85;25909;-80
2022/02/21 02:10:09;;;;;;;4.25;2.30;;;;;;;7.01;91.81;98637.91;1651532;85;27490;-80
2022/02/21 02:12:35;;;;;;;2.90;1.95;;;;;;;7.01;92.17;98636.59;1656064;85;25960;-80
2022/02/21 02:15:02;;;;;;;3.62;1.55;;;;;;;6.97;93.00;98622.06;1653869;85;25831;-79
2022/02/21 02:17:29;;;;;;;2.55;1.67;;;;;;;6.96;92.81;98616.42;1663033;85;25800;-79
2022/02/21 02:19:55;;;;;;;2.67;1.67;;;;;;;6.96;92.79;98623.08;1649195;86;25892;-80
2022/02/21 02:22:23;;;;;;;3.05;2.33;;;;;;;6.93;93.63;98607.02;1652646;85;27611;-80
2022/02/21 02:24:53;;;;;;;4.30;2.25;;;;;;;6.93;93.16;98617.66;1649024;86;26014;-80
2022/02/21 02:27:22;;;;;;;2.52;1.65;;;;;;;6.93;93.44;98607.52;1656781;85;25906;-80
2022/02/21 02:29:52;;;;;;;3.15;1.70;;;;;;;6.91;93.52;98598.94;1656904;85;25820;-80
2022/02/21 02:32:21;;;;;;;2.52;1.50;;;;;;;6.93;93.74;98588.89;1650951;85;26043;-80
2022/02/21 02:34:48;;;;;;;2.45;1.47;;;;;;;6.91;94.07;98590.45;1656775;85;28372;-79
2022/02/21 02:37:16;;;;;;;2.02;1.72;;;;;;;6.89;94.18;98583.19;1651328;85;26596;-80
2022/02/21 02:39:42;;;;;;;3.62;1.87;;;;;;;6.89;94.07;98570.39;1633380;85;26511;-80
2022/02/21 02:42:09;;;;;;;3.45;2.00;;;;;;;6.90;94.19;98569.38;1652771;85;25848;-80
2022/02/21 02:44:36;;;;;;;2.42;1.52;;;;;;;6.90;94.36;98565.38;1653010;85;25806;-79
2022/02/21 02:47:11;;;;;;;2.58;1.60;;;;;;;6.91;94.24;98564.34;1653044;85;26932;-79
2022/02/21 02:49:38;;;;;;;2.80;1.77;;;;;;;6.91;94.30;98559.02;1651767;85;26596;-80
2022/02/21 02:52:07;;;;;;;3.40;1.80;;;;;;;6.90;94.19;98548.91;1659839;85;26532;-79
2022/02/21 02:54:34;;;;;;;2.45;1.75;;;;;;;6.90;94.42;98549.41;1656737;85;25834;-80
2022/02/21 02:57:00;;;;;;;3.58;1.92;;;;;;;6.89;94.43;98540.61;1656857;85;25916;-80
2022/02/21 02:59:27;;;;;;;2.05;1.67;;;;;;;6.88;94.53;98529.68;1656839;85;27495;-79
2022/02/21 03:01:54;;;;;;;2.27;1.65;;;;;;;6.89;94.69;98528.63;1650422;85;25943;-80
2022/02/21 03:04:21;;;;;;;2.92;1.70;;;;;;;6.90;94.82;98530.79;1658315;85;25921;-79
2022/02/21 03:06:47;;;;;;;2.30;1.62;;;;;;;6.89;95.01;98515.84;1653431;85;25835;-79
2022/02/21 03:09:13;;;;;;;2.15;1.70;;;;;;;6.88;94.85;98508.89;1652172;85;25353;-80
2022/02/21 03:11:40;;;;;;;2.58;1.52;;;;;;;6.88;95.08;98506.23;1652564;85;28218;-80
2022/02/21 03:14:06;;;;;;;3.72;1.80;;;;;;;6.87;95.10;98499.27;1656545;85;25924;-80
2022/02/21 03:16:32;;;;;;;2.50;1.60;;;;;;;6.87;95.28;98492.11;1664505;85;26296;-80
2022/02/21 03:18:59;;;;;;;2.50;1.60;;;;;;;6.87;95.16;98486.78;1649308;86;25811;-80
2022/02/21 03:21:26;;;;;;;2.25;1.45;;;;;;;6.87;95.25;98485.45;1652756;85;25887;-80
2022/02/21 03:23:53;;;;;;;2.87;1.42;;;;;;;6.87;95.55;98474.81;1652660;85;27102;-79
2022/02/21 03:26:19;;;;;;;2.40;1.50;;;;;;;6.88;95.34;98466.32;1662984;85;25931;-80
2022/02/21 03:28:45;;;;;;;1.45;1.30;;;;;;;6.87;95.26;98460.68;1633023;86;26367;-80
2022/02/21 03:31:12;;;;;;;1.92;1.57;;;;;;;6.86;95.17;98455.08;1649401;85;25956;-79
2022/02/21 03:33:38;;;;;;;1.87;1.67;;;;;;;6.88;95.25;98443.19;1648782;86;25982;-79
2022/02/21 03:36:05;;;;;;;2.45;1.37;;;;;;;6.87;95.24;98433.56;1655874;85;27489;-80
2022/02/21 03:38:31;;;;;;;1.60;1.50;;;;;;;6.88;95.28;98429.06;1656653;85;26408;-79
2022/02/21 03:40:58;;;;;;;4.25;1.50;;;;;;;6.88;95.46;98423.23;1621257;88;25936;-79
2022/02/21 03:43:25;;;;;;;2.75;1.50;;;;;;;6.87;95.55;98414.94;1620980;88;26690;-80
2022/02/21 03:45:51;;;;;;;2.52;1.30;;;;;;;6.88;95.67;98409.92;1657578;85;26019;-79
2022/02/21 03:48:17;;;;;;;1.85;1.40;;;;;;;6.88;95.59;98399.28;1648173;86;28233;-80
2022/02/21 03:50:44;;;;;;;3.40;1.50;;;;;;;6.89;95.39;98400.07;1678364;84;25948;-80
2022/02/21 03:53:10;;;;;;;3.12;1.45;;;;;;;6.89;95.44;98395.57;1654087;85;25969;-80
2022/02/21 03:55:36;;;;;;;2.83;1.85;;;;;;;6.87;95.52;98383.00;1682456;84;25892;-80
2022/02/21 03:58:04;;;;;;;4.22;1.32;;;;;;;6.88;95.39;98379.83;1682870;84;25914;-80
2022/02/21 04:00:30;;;;;;;3.50;1.42;;;;;;;6.86;95.63;98368.05;1678629;84;27562;-80
2022/02/21 04:02:56;;;;;;;3.02;1.65;;;;;;;6.87;95.84;98368.88;1675493;84;26209;-80
2022/02/21 04:05:23;;;;;;;3.67;1.65;;;;;;;6.86;95.72;98353.95;1688911;84;25929;-80
2022/02/21 04:07:49;;;;;;;1.67;1.30;;;;;;;6.85;96.15;98346.99;1674985;85;26011;-80
2022/02/21 04:10:21;;;;;;;2.90;1.12;;;;;;;6.84;95.86;98342.72;1678518;84;26578;-80
2022/02/21 04:12:45;;;;;;;2.10;1.10;;;;;;;6.84;95.79;98336.06;1650229;85;28113;-80
2022/02/21 04:15:12;;;;;;;2.40;1.32;;;;;;;6.86;95.91;98341.98;1678426;84;25900;-80
2022/02/21 04:17:47;;;;;;;2.10;1.30;;;;;;;6.86;96.10;98320.69;1678641;84;25866;-80
2022/02/21 04:20:20;;;;;;;4.37;1.65;;;;;;;6.87;96.28;98310.33;1682261;84;25889;-80
2022/02/21 04:22:47;;;;;;;2.25;1.47;;;;;;;6.86;96.70;98345.43;1674368;84;25835;-79
2022/02/21 04:25:14;;;;;;;2.47;1.40;;;;;;;6.84;96.86;98334.20;1674624;85;28364;-79
2022/02/21 04:27:47;;;;;;;2.55;1.30;;;;;;;6.84;96.89;98312.12;1679757;84;26006;-80
2022/02/21 04:30:17;;;;;;;2.45;1.47;;;;;;;6.83;96.90;98315.28;1674660;85;25828;-80
2022/02/21 04:32:46;;;;;;;2.15;1.10;;;;;;;6.85;96.78;98296.43;1699925;84;25843;-80
2022/02/21 04:35:14;;;;;;;1.75;1.07;;;;;;;6.86;97.19;98294.88;1703032;84;25793;-79
2022/02/21 04:37:41;;;;;;;3.60;1.60;;;;;;;6.89;97.15;98300.28;1702906;84;27473;-80
2022/02/21 04:40:11;;;;;;;2.80;1.25;;;;;;;6.89;97.32;98290.45;1703439;84;25767;-79
2022/02/21 04:42:37;;;;;;;3.37;1.00;;;;;;;6.89;97.05;98297.11;1702852;84;25787;-80
2022/02/21 04:45:06;;;;;;;1.90;1.15;;;;;;;6.89;97.02;98293.12;1703144;84;26367;-79
2022/02/21 04:47:32;;;;;;;2.10;1.25;;;;;;;6.90;97.00;98289.95;1702928;84;25953;-79
2022/02/21 04:49:58;;;;;;;1.67;1.00;;;;;;;6.89;97.24;98288.31;1694719;84;27465;-79
2022/02/21 04:52:25;;;;;;;5.28;1.17;;;;;;;6.88;97.09;98292.02;1694337;84;26479;-80
2022/02/21 04:54:51;;;;;;;3.58;1.57;;;;;;;6.88;97.06;98288.84;1695181;84;26361;-80
2022/02/21 04:57:17;;;;;;;2.58;1.40;;;;;;;6.89;97.22;98281.14;1694808;84;25869;-78
2022/02/21 04:59:43;;;;;;;1.47;1.00;;;;;;;6.89;97.33;98286.47;1695135;84;25994;-79
2022/02/21 05:02:10;;;;;;;1.65;1.10;;;;;;;6.88;97.97;98287.52;1694694;84;27515;-80
2022/02/21 05:04:36;;;;;;;2.30;1.25;;;;;;;6.88;97.46;98280.86;1694610;84;26593;-80
2022/02/21 05:07:02;;;;;;;2.45;1.10;;;;;;;6.88;97.43;98278.71;1694786;84;25966;-80
2022/02/21 05:09:28;;;;;;;2.42;1.40;;;;;;;6.88;98.02;98274.21;1694895;84;25908;-79
2022/02/21 05:11:55;;;;;;;4.17;1.20;;;;;;;6.87;98.02;98270.41;1694577;84;25803;-80
2022/02/21 05:14:21;;;;;;;3.33;1.52;;;;;;;6.86;98.11;98265.61;1674552;84;27477;-79
2022/02/21 05:16:47;;;;;;;2.37;1.20;;;;;;;6.88;98.23;98258.24;1668638;85;25844;-80
2022/02/21 05:19:13;;;;;;;3.37;1.60;;;;;;;6.87;98.27;98250.45;1668581;85;25880;-80
2022/02/21 05:21:40;;;;;;;3.58;1.50;;;;;;;6.88;98.10;98248.11;1647323;86;26438;-81
2022/02/21 05:24:06;;;;;;;2.58;1.12;;;;;;;6.87;98.03;98248.63;1677571;85;25783;-79
2022/02/21 05:26:32;;;;;;;2.92;1.52;;;;;;;6.86;98.25;98245.64;1676471;85;27484;-80
2022/02/21 05:28:58;;;;;;;1.72;1.27;;;;;;;6.87;98.45;98232.66;1667162;85;26515;-79
2022/02/21 05:31:24;;;;;;;2.85;1.30;;;;;;;6.88;98.50;98238.28;1638039;86;25929;-79
2022/02/21 05:33:52;;;;;;;1.20;1.00;;;;;;;6.89;98.65;98239.08;1670415;85;25858;-79
2022/02/21 05:36:18;;;;;;;1.57;1.20;;;;;;;6.89;98.76;98231.09;1669444;85;25900;-80
2022/02/21 05:38:45;;;;;;;3.25;1.37;;;;;;;6.88;98.62;98235.63;1673057;85;27479;-79
2022/02/21 05:41:11;;;;;;;1.90;1.30;;;;;;;6.89;98.69;98230.58;1674855;85;25834;-79
2022/02/21 05:43:37;;;;;;;2.40;1.45;;;;;;;6.90;98.46;98226.91;1662514;85;25753;-79
2022/02/21 05:46:05;;;;;;;1.32;1.00;;;;;;;6.91;98.49;98229.84;1662836;85;25746;-80
2022/02/21 05:48:32;;;;;;;5.08;1.45;;;;;;;6.91;98.61;98225.85;1673781;84;25744;-80
2022/02/21 05:50:59;;;;;;;2.02;1.50;;;;;;;6.91;98.75;98213.88;1660978;85;27467;-81
2022/02/21 05:53:25;;;;;;;4.25;1.40;;;;;;;6.92;98.81;98224.83;1654685;86;26479;-80
2022/02/21 05:55:52;;;;;;;3.05;1.30;;;;;;;6.93;98.67;98222.45;1654946;85;25864;-80
2022/02/21 05:58:18;;;;;;;4.45;1.07;;;;;;;6.94;98.87;98203.31;1665640;84;25768;-80
2022/02/21 06:00:46;;;;;;;2.17;1.20;;;;;;;6.95;98.79;98204.92;1663083;84;25923;-79
2022/02/21 06:03:12;;;;;;;4.67;1.15;;;;;;;6.95;98.57;98206.25;1641292;85;28258;-79
2022/02/21 06:05:39;;;;;;;2.90;1.25;;;;;;;6.97;98.55;98209.53;1667897;84;25551;-79
2022/02/21 06:08:05;;;;;;;2.52;1.40;;;;;;;6.96;98.72;98210.05;1666491;84;25993;-80
2022/02/21 06:10:31;;;;;;;2.83;1.22;;;;;;;6.97;98.52;98199.68;1669972;84;25996;-81
2022/02/21 06:12:58;;;;;;;2.47;1.42;;;;;;;6.97;98.56;98191.70;1612573;87;25766;-80
2022/02/21 06:15:24;;;;;;;2.35;1.27;;;;;;;6.97;98.81;98185.58;1632334;86;27478;-79
2022/02/21 06:17:50;;;;;;;3.52;1.25;;;;;;;6.96;98.77;98176.78;1668154;84;25841;-79
2022/02/21 06:20:16;;;;;;;1.45;1.10;;;;;;;6.98;98.70;98173.38;1649200;86;25770;-79
2022/02/21 06:22:46;;;;;;;2.10;1.40;;;;;;;7.00;99.04;98170.48;1653603;86;26340;-79
2022/02/21 06:25:12;;;;;;;2.05;1.35;;;;;;;6.99;98.86;98169.66;1661778;85;25914;-81
2022/02/21 06:27:39;;;;;;;3.15;1.40;;;;;;;7.01;98.76;98174.24;1682700;84;27539;-79
2022/02/21 06:30:06;;;;;;;2.65;1.72;;;;;;;7.02;98.91;98176.39;1673182;84;25869;-79
2022/02/21 06:32:32;;;;;;;2.10;1.20;;;;;;;7.03;98.69;98167.90;1654014;86;25910;-80
2022/02/21 06:34:59;;;;;;;2.50;1.22;;;;;;;7.03;98.64;98161.25;1635627;86;25901;-79
2022/02/21 06:37:25;;;;;;;3.30;1.40;;;;;;;7.04;99.00;98157.02;1650650;86;25954;-79
2022/02/21 06:39:53;;;;;;;2.87;1.40;;;;;;;7.06;98.91;98147.50;1663708;84;25979;-81
2022/02/21 06:42:19;;;;;;;1.42;1.22;;;;;;;7.05;98.63;98156.00;1661273;85;26724;-79
2022/02/21 06:44:45;;;;;;;4.00;1.10;;;;;;;7.06;98.71;98147.50;1650393;86;25948;-79
2022/02/21 06:47:11;;;;;;;1.75;1.05;;;;;;;7.07;98.76;98147.78;1637440;86;25794;-79
2022/02/21 06:49:38;;;;;;;3.58;1.30;;;;;;;7.07;98.90;98150.44;1643437;86;25862;-79
2022/02/21 06:52:06;;;;;;;2.58;0.95;;;;;;;7.08;98.74;98156.08;1647690;86;28399;-80
2022/02/21 06:54:32;;;;;;;2.52;1.25;;;;;;;7.09;98.73;98159.02;1655368;85;25762;-79
2022/02/21 06:56:58;;;;;;;3.40;1.70;;;;;;;7.11;98.72;98150.28;1648348;86;26099;-79
2022/02/21 06:59:24;;;;;;;2.58;1.35;;;;;;;7.12;98.61;98151.39;1649019;86;26244;-79
2022/02/21 07:01:50;;;;;;;6.33;1.62;;;;;;;7.13;98.68;98156.20;1648430;86;25992;-80
2022/02/21 07:04:16;;;;;;;4.55;3.17;;;;;;;7.14;98.43;98141.87;1655923;85;28322;-79
2022/02/21 07:06:43;;;;;;;3.42;1.72;;;;;;;7.16;98.41;98152.59;1660716;85;25843;-79
2022/02/21 07:09:09;;;;;;;2.17;1.27;;;;;;;7.20;98.35;98138.30;1669580;85;26081;-78
2022/02/21 07:11:35;;;;;;;3.22;1.35;;;;;;;7.23;98.26;98139.98;1649951;85;25963;-79
2022/02/21 07:14:02;;;;;;;2.67;1.50;;;;;;;7.27;98.16;98147.02;1652698;85;25797;-81
2022/02/21 07:16:28;;;;;;;3.85;1.52;;;;;;;7.28;98.06;98141.98;1656530;85;28491;-79
2022/02/21 07:18:55;;;;;;;3.42;1.37;;;;;;;7.33;97.89;98150.11;1648973;86;25929;-80
2022/02/21 07:21:21;;;;;;;3.98;1.50;;;;;;;7.34;97.67;98140.55;1652850;85;25860;-80
2022/02/21 07:23:47;;;;;;;4.00;1.80;;;;;;;7.38;97.50;98150.23;1648977;86;25799;-78
2022/02/21 07:26:13;;;;;;;5.42;1.90;;;;;;;7.40;97.40;98141.52;1649593;86;25754;-80
2022/02/21 07:28:39;;;;;;;2.33;1.30;;;;;;;7.42;97.02;98134.91;1647955;86;27489;-80
2022/02/21 07:31:06;;;;;;;3.77;1.55;;;;;;;7.46;96.98;98136.62;1656179;85;25931;-80
2022/02/21 07:33:33;;;;;;;5.08;2.10;;;;;;;7.49;96.61;98130.82;1656188;85;25888;-80
2022/02/21 07:35:59;;;;;;;3.87;1.80;;;;;;;7.52;96.50;98138.37;1654765;85;25939;-79
2022/02/21 07:38:25;;;;;;;6.55;2.33;;;;;;;7.54;96.17;98138.95;1644162;86;26501;-79
2022/02/21 07:40:52;;;;;;;3.10;1.67;;;;;;;7.59;96.13;98128.44;1640922;86;27535;-79
2022/02/21 07:43:18;;;;;;;3.62;1.80;;;;;;;7.60;95.96;98123.39;1661712;85;25741;-79
2022/02/21 07:45:44;;;;;;;8.80;3.20;;;;;;;7.62;95.64;98133.30;1648533;85;26044;-80
2022/02/21 07:48:11;;;;;;;3.90;2.30;;;;;;;7.64;95.56;98129.37;1628533;86;25854;-81
2022/02/21 07:50:37;;;;;;;3.72;2.08;;;;;;;7.66;95.32;98139.79;1634357;86;26015;-79
2022/02/21 07:53:03;;;;;;;2.70;1.65;;;;;;;7.68;95.01;98135.05;1686750;84;27463;-79
2022/02/21 07:55:29;;;;;;;4.97;1.85;;;;;;;7.70;95.08;98136.45;1686698;84;25881;-78
2022/02/21 07:57:59;;;;;;;3.92;2.20;;;;;;;7.73;94.75;98140.52;1686434;84;26158;-78
2022/02/21 08:00:26;;;;;;;3.42;1.90;;;;;;;7.73;94.53;98149.33;1686744;84;25828;-78
2022/02/21 08:02:52;;;;;;;4.42;2.15;;;;;;;7.76;94.15;98156.84;1686361;84;25864;-79
2022/02/21 08:05:19;;;;;;;4.03;1.72;;;;;;;7.78;94.06;98156.64;1687077;84;27553;-79
2022/02/21 08:07:46;;;;;;;2.12;1.45;;;;;;;7.82;93.97;98154.32;1688355;84;26712;-80
2022/02/21 08:10:13;;;;;;;3.08;1.60;;;;;;;7.84;93.84;98160.23;1676871;84;25822;-80
2022/02/21 08:12:39;;;;;;;5.35;1.72;;;;;;;7.86;93.52;98147.48;1674243;85;26023;-80
2022/02/21 08:15:07;;;;;;;4.87;1.92;;;;;;;7.89;93.17;98163.83;1674767;85;25832;-80
2022/02/21 08:17:42;;;;;;;4.75;2.30;;;;;;;7.92;92.89;98148.72;1674755;85;27554;-81
2022/02/21 08:20:10;;;;;;;4.45;1.60;;;;;;;7.97;92.93;98132.05;1674630;85;25822;-79
2022/02/21 08:22:37;;;;;;;6.90;1.82;;;;;;;7.99;92.55;98130.78;1674433;85;25849;-80
2022/02/21 08:25:04;;;;;;;3.60;1.77;;;;;;;8.03;92.47;98126.60;1674795;85;25791;-79
2022/02/21 08:27:31;;;;;;;2.65;1.40;;;;;;;8.08;91.75;98129.41;1686526;84;26628;-79
2022/02/21 08:29:57;;;;;;;4.83;1.32;;;;;;;8.13;91.85;98128.69;1658418;84;27465;-81
2022/02/21 08:32:24;;;;;;;3.05;1.15;;;;;;;8.18;90.84;98132.81;1685202;84;25912;-80
2022/02/21 08:34:50;;;;;;;4.15;1.90;;;;;;;8.23;90.87;98134.27;1679624;84;25757;-79
2022/02/21 08:37:16;;;;;;;2.80;1.60;;;;;;;8.26;90.79;98129.31;1685747;84;26630;-78
2022/02/21 08:39:43;;;;;;;5.50;1.67;;;;;;;8.30;90.45;98129.14;1663693;83;25802;-81
2022/02/21 08:42:09;;;;;;;2.40;1.25;;;;;;;8.34;89.77;98119.63;1697660;83;28369;-81
2022/02/21 08:44:35;;;;;;;5.37;1.77;;;;;;;8.38;89.54;98115.44;1734671;81;26010;-80
2022/02/21 08:47:02;;;;;;;3.30;1.70;;;;;;;8.42;89.61;98129.14;1697341;83;25927;-81
2022/02/21 08:49:28;;;;;;;3.87;2.20;;;;;;;8.47;89.54;98143.91;1731968;81;25973;-81
2022/02/21 08:51:54;;;;;;;4.17;1.80;;;;;;;8.51;89.55;98145.88;1683878;83;25836;-81
2022/02/21 08:54:21;;;;;;;5.87;1.40;;;;;;;8.57;89.04;98154.02;1673266;85;27445;-81
2022/02/21 08:56:48;;;;;;;2.70;1.55;;;;;;;8.62;88.14;98165.59;1693217;83;25820;-81
2022/02/21 08:59:16;;;;;;;2.33;1.52;;;;;;;8.68;87.77;98167.36;1687851;83;25885;-81
2022/02/21 09:01:44;;;;;;;2.00;1.50;;;;;;;8.72;87.28;98158.35;1675338;85;26394;-82
2022/02/21 09:04:12;;;;;;;2.67;1.52;;;;;;;8.76;87.36;98176.34;1675105;85;25764;-82
2022/02/21 09:06:38;;;;;;;4.75;2.15;;;;;;;8.80;86.67;98164.66;1688554;83;27470;-81
2022/02/21 09:09:05;;;;;;;5.00;1.85;;;;;;;8.85;87.08;98172.78;1672445;83;25837;-81
2022/02/21 09:11:31;;;;;;;4.50;2.50;;;;;;;8.88;86.20;98168.30;1653231;85;25769;-82
2022/02/21 09:13:57;;;;;;;7.87;3.60;;;;;;;8.92;85.66;98160.10;1675405;85;25889;-81
2022/02/21 09:16:23;;;;;;;7.33;3.00;;;;;;;8.98;84.73;98163.98;1669536;84;25949;-80
2022/02/21 09:18:50;;;;;;;8.55;4.42;;;;;;;9.03;84.10;98170.77;1673014;84;27679;-80
2022/02/21 09:21:16;;;;;;;3.40;1.95;;;;;;;9.08;84.17;98176.23;1686796;83;25878;-81
2022/02/21 09:23:42;;;;;;;4.62;2.67;;;;;;;9.11;83.42;98166.94;1682939;83;25726;-82
2022/02/21 09:26:08;;;;;;;5.78;2.00;;;;;;;9.13;83.49;98177.65;1683752;83;25758;-80
2022/02/21 09:28:34;;;;;;;6.62;3.52;;;;;;;9.15;83.73;98182.23;1664362;85;25903;-80
2022/02/21 09:31:00;;;;;;;3.22;2.08;;;;;;;9.18;83.27;98184.95;1674626;84;28046;-80
2022/02/21 09:33:27;;;;;;;4.35;2.25;;;;;;;9.20;83.66;98189.02;1667307;84;25882;-81
2022/02/21 09:35:53;;;;;;;4.22;2.40;;;;;;;9.23;82.94;98187.73;1671294;84;25936;-82
2022/02/21 09:38:20;;;;;;;4.12;2.08;;;;;;;9.25;82.99;98184.31;1677474;84;25841;-81
2022/02/21 09:40:50;;;;;;;4.58;2.40;;;;;;;9.26;82.98;98190.73;1689619;83;25961;-81
2022/02/21 09:43:20;;;;;;;3.67;1.75;;;;;;;9.26;82.78;98180.57;1674329;85;45478;-80
2022/02/21 09:45:46;;;;;;;;;;;;;;;9.26;81.68;98179.23;1668588;85;26196;-82
2022/02/21 09:48:15;;;;;;;3.62;2.10;;;;;;;9.25;81.88;98185.13;1694135;83;26120;-80
2022/02/21 09:50:42;;;;;;;3.37;1.90;;;;;;;9.23;81.79;98180.55;1687986;83;26575;-81
2022/02/21 09:53:09;;;;;;;3.95;1.57;;;;;;;9.25;82.62;98174.95;1691866;83;25902;-81
2022/02/21 09:55:36;;;;;;;4.20;2.55;;;;;;;9.26;81.86;98176.56;1651155;86;27641;-81
2022/02/21 09:58:04;;;;;;;5.75;1.70;;;;;;;9.28;82.10;98190.52;1698489;83;26155;-83
2022/02/21 10:00:31;;;;;;;2.87;1.50;;;;;;;9.31;81.61;98188.70;1690076;83;25852;-83
2022/02/21 10:02:58;;;;;;;3.05;1.80;;;;;;;9.34;80.95;98191.70;1678342;84;25866;-83
2022/02/21 10:05:30;;;;;;;3.62;2.22;;;;;;;9.39;80.62;98194.20;1691658;83;26479;-82
2022/02/21 10:07:55;;;;;;;5.53;2.42;;;;;;;9.40;80.30;98188.62;1683240;84;28135;-83
2022/02/21 10:10:24;;;;;;;2.20;1.62;;;;;;;9.40;80.37;98197.97;1648492;85;25896;-82
2022/02/21 10:12:58;;;;;;;4.85;1.72;;;;;;;9.42;78.82;98204.41;1696137;83;26591;-82
2022/02/21 10:15:29;;;;;;;4.37;2.70;;;;;;;9.41;78.92;98201.45;1687822;83;25970;-82
2022/02/21 10:18:14;;;;;;;6.25;2.83;;;;;;;9.40;80.28;98202.49;1634812;86;26456;-82
2022/02/21 10:20:54;;;;;;;3.10;1.75;;;;;;;9.42;79.10;98185.70;1685435;83;27624;-80
2022/02/21 10:23:21;;;;;;;5.58;4.97;;;;;;;9.44;77.43;98203.64;1683596;83;26575;-80
2022/02/21 10:25:59;;;;;;;5.53;2.98;;;;;;;9.43;78.37;98194.80;1687065;84;26476;-81
2022/02/21 10:28:30;;;;;;;3.40;1.90;;;;;;;9.43;79.02;98197.48;1652482;86;25722;-80
2022/02/21 10:31:19;;;;;;;3.42;2.12;;;;;;;9.40;78.31;98215.85;1686670;83;26026;-79
2022/02/21 10:34:05;;;;;;;3.05;1.52;;;;;;;9.34;79.27;98231.77;1689573;83;28331;-80
2022/02/21 10:36:36;;;;;;;2.00;1.22;;;;;;;9.21;78.17;98238.73;1653375;86;25839;-82
2022/02/21 10:39:08;;;;;;;3.00;2.17;;;;;;;8.95;79.04;98247.23;1688317;83;25760;-82
2022/02/21 10:41:42;;;;;;;4.28;2.50;;;;;;;8.76;79.92;98255.59;1683113;83;26511;-80
2022/02/21 10:44:28;;;;;;;4.75;2.22;;;;;;;8.60;80.04;98264.30;1685863;83;25998;-80
2022/02/21 10:47:11;;;;;;;3.08;1.70;;;;;;;8.39;80.99;98279.80;1684427;83;27522;-80
2022/02/21 10:49:48;;;;;;;5.87;2.50;;;;;;;8.23;81.90;98304.95;1684353;83;25813;-79
2022/02/21 10:52:19;;;;;;;2.77;1.90;;;;;;;8.09;82.42;98321.64;1691760;83;26604;-81
2022/02/21 10:54:46;;;;;;;;;;;;;;;7.95;82.80;98318.05;1689729;83;26620;-80
2022/02/21 10:57:17;;;;;;;38.70;18.42;;;;;;;7.80;83.55;98321.91;1686592;83;25597;-80
2022/02/21 10:59:45;;;;;;;37.08;18.15;;;;;;;7.70;83.89;98332.80;1683827;84;27491;-80
2022/02/21 11:02:15;;;;;;;49.33;22.85;;;;;;;7.58;82.59;98333.26;1683703;84;25832;-81
2022/02/21 11:04:43;;;;;;;25.45;12.03;;;;;;;7.48;82.76;98367.09;1688385;84;25945;-79
2022/02/21 11:07:11;;;;;;;11.97;7.37;;;;;;;7.36;82.62;98361.36;1686466;83;26036;-80
2022/02/21 11:09:40;;;;;;;4.45;2.77;;;;;;;7.28;82.38;98368.30;1685928;83;25815;-79
2022/02/21 11:12:07;;;;;;;2.70;1.75;;;;;;;7.19;82.01;98373.61;1685597;83;28067;-79
2022/02/21 11:14:35;;;;;;;6.20;3.00;;;;;;;7.12;81.79;98368.88;1686914;83;25936;-80
2022/02/21 11:17:05;;;;;;;7.78;4.20;;;;;;;7.06;81.20;98363.89;1687146;83;25928;-80
2022/02/21 11:19:31;;;;;;;13.85;6.62;;;;;;;7.04;81.92;98371.28;1683028;83;26829;-79
2022/02/21 11:21:58;;;;;;;53.15;23.35;;;;;;;7.02;81.62;98381.34;1688387;83;25804;-79
2022/02/21 11:24:29;;;;;;;24.45;10.55;;;;;;;7.00;81.49;98394.88;1683936;83;28334;-80
2022/02/21 11:27:32;;;;;;;3.00;2.33;;;;;;;7.01;82.23;98391.16;1682103;83;25699;-80
2022/02/21 11:30:24;;;;;;;4.58;1.98;;;;;;;7.05;81.99;98389.41;1685136;83;25674;-80
2022/02/21 11:33:09;;;;;;;2.52;1.22;;;;;;;7.04;81.72;98413.88;1690160;83;25908;-81
2022/02/21 11:36:00;;;;;;;2.15;1.60;;;;;;;7.00;81.75;98399.38;1652758;86;26098;-80
2022/02/21 11:38:29;;;;;;;1.42;0.95;;;;;;;6.95;81.21;98396.03;1689968;83;27483;-80
2022/02/21 11:41:11;;;;;;;1.82;1.20;;;;;;;6.87;81.30;98369.70;1691068;83;25806;-81
2022/02/21 11:43:47;;;;;;;4.25;1.65;;;;;;;6.87;82.20;98380.84;1682110;84;25844;-80